createdAt,value
2022-12-28T00:00:25.991Z,100059.41
2022-12-28T00:02:36.024Z,100078.75
2022-12-28T00:04:41.359Z,100067.31
2022-12-28T00:06:46.159Z,100069.94
2022-12-28T00:08:51.345Z,100085.72
2022-12-28T00:11:07.935Z,100088.38
2022-12-28T00:13:14.349Z,100085.72
2022-12-28T00:15:18.284Z,100085.72
2022-12-28T00:17:23.242Z,100069.94
2022-12-28T00:19:27.086Z,100068.25
2022-12-28T00:21:31.168Z,100077.00
2022-12-28T00:23:35.083Z,100064.69
2022-12-28T00:25:38.722Z,100054.16
2022-12-28T00:27:42.271Z,100062.97
2022-12-28T00:29:45.923Z,100061.31
2022-12-28T00:31:50.268Z,100062.13
2022-12-28T00:33:55.507Z,100060.44
2022-12-28T00:36:00.611Z,100066.66
2022-12-28T00:38:04.189Z,100056.13
2022-12-28T00:40:08.864Z,100042.13
2022-12-28T00:42:13.016Z,100030.84
2022-12-28T00:44:16.964Z,100040.41
2022-12-28T00:46:20.609Z,100030.94
2022-12-28T00:48:24.704Z,100027.44
2022-12-28T00:50:29.662Z,100010.91
2022-12-28T00:52:33.986Z,100010.06
2022-12-28T00:54:37.650Z,100007.53
2022-12-28T00:56:42.980Z,100000.66
2022-12-28T00:58:47.575Z,99990.22
2022-12-28T01:00:51.507Z,99992.09
2022-12-28T01:02:55.275Z,99983.41
2022-12-28T01:04:59.057Z,99980.88
2022-12-28T01:07:03.947Z,99968.66
2022-12-28T01:09:08.135Z,99963.41
2022-12-28T01:11:12.861Z,99957.31
2022-12-28T01:13:16.611Z,99937.97
2022-12-28T01:15:20.319Z,99936.16
2022-12-28T01:17:24.437Z,99940.59
2022-12-28T01:19:28.125Z,99944.88
2022-12-28T01:21:33.446Z,99930.91
2022-12-28T01:23:38.508Z,99926.47
2022-12-28T01:25:42.500Z,99930.06
2022-12-28T01:27:46.167Z,99934.38
2022-12-28T01:29:49.831Z,99933.53
2022-12-28T01:31:53.625Z,99914.19
2022-12-28T01:33:57.279Z,99902.06
2022-12-28T01:36:00.983Z,99905.53
2022-12-28T01:38:04.866Z,99909.94
2022-12-28T01:40:15.297Z,99894.16
2022-12-28T01:42:20.399Z,99893.31
2022-12-28T01:44:43.704Z,99889.00
2022-12-28T01:46:50.228Z,99883.75
2022-12-28T01:49:00.554Z,99887.31
2022-12-28T01:51:05.525Z,99884.78
2022-12-28T01:53:09.200Z,99889.28
2022-12-28T01:55:17.373Z,99886.72
2022-12-28T01:57:24.943Z,99884.19
2022-12-28T01:59:32.743Z,99881.56
2022-12-28T02:01:36.741Z,99878.00
2022-12-28T02:03:40.497Z,99884.09
2022-12-28T02:05:47.052Z,99874.34
2022-12-28T02:07:55.918Z,99869.94
2022-12-28T02:10:41.088Z,99859.22
2022-12-28T02:12:26.760Z,99860.91
2022-12-28T02:14:31.736Z,99852.91
2022-12-28T02:16:35.236Z,99862.50
2022-12-28T02:18:39.813Z,99854.63
2022-12-28T02:20:55.298Z,99844.94
2022-12-28T02:23:40.922Z,99841.38
2022-12-28T02:26:14.114Z,99843.06
2022-12-28T02:28:42.444Z,99839.50
2022-12-28T02:30:54.432Z,99837.63
2022-12-28T02:33:08.178Z,99837.44
2022-12-28T02:35:17.963Z,99839.91
2022-12-28T02:37:27.056Z,99838.00
2022-12-28T02:39:38.991Z,99850.13
2022-12-28T02:41:44.182Z,99841.28
2022-12-28T02:43:49.570Z,99829.91
2022-12-28T02:46:10.482Z,99829.91
2022-12-28T02:48:31.568Z,99828.25
2022-12-28T02:50:44.038Z,99831.69
2022-12-28T02:53:19.497Z,99829.16
2022-12-28T02:55:57.277Z,99829.91
2022-12-28T02:58:30.719Z,99822.09
2022-12-28T03:00:46.009Z,99818.53
2022-12-28T03:02:59.321Z,99810.66
2022-12-28T03:05:11.703Z,99813.19
2022-12-28T03:07:40.722Z,99809.72
2022-12-28T03:09:51.392Z,99795.63
2022-12-28T03:12:00.515Z,99780.66
2022-12-28T03:14:08.353Z,99781.50
2022-12-28T03:16:18.500Z,99772.78
2022-12-28T03:18:41.076Z,99767.50
2022-12-28T03:21:03.073Z,99758.78
2022-12-28T03:23:26.808Z,99756.06
2022-12-28T03:25:52.989Z,99740.38
2022-12-28T03:28:25.994Z,99739.50
2022-12-28T03:30:48.547Z,99722.88
2022-12-28T03:32:54.329Z,99721.28
2022-12-28T03:34:58.168Z,99726.56
2022-12-28T03:37:10.691Z,99733.78
2022-12-28T03:39:24.042Z,99720.75
2022-12-28T03:41:32.838Z,99705.16
2022-12-28T03:43:50.764Z,99698.28
2022-12-28T03:45:58.808Z,99688.78
2022-12-28T03:48:04.831Z,99688.88
2022-12-28T03:50:08.931Z,99685.22
2022-12-28T03:52:14.127Z,99674.69
2022-12-28T03:54:18.764Z,99673.00
2022-12-28T03:56:24.053Z,99666.81
2022-12-28T03:58:30.224Z,99660.59
2022-12-28T04:00:34.031Z,99658.09
2022-12-28T04:02:37.684Z,99650.69
2022-12-28T04:04:42.676Z,99636.03
2022-12-28T04:06:46.681Z,99624.75
2022-12-28T04:08:49.904Z,99619.50
2022-12-28T04:10:53.665Z,99627.28
2022-12-28T04:12:57.792Z,99624.66
2022-12-28T04:15:07.510Z,99621.19
2022-12-28T04:17:11.411Z,99607.22
2022-12-28T04:19:19.006Z,99606.16
2022-12-28T04:21:24.646Z,99593.09
2022-12-28T04:23:32.151Z,99575.75
2022-12-28T04:26:03.779Z,99573.19
2022-12-28T04:28:07.125Z,99575.84
2022-12-28T04:30:36.097Z,99574.78
2022-12-28T04:32:39.466Z,99566.91
2022-12-28T04:34:48.216Z,99555.34
2022-12-28T04:36:54.858Z,99558.28
2022-12-28T04:38:59.694Z,99543.56
2022-12-28T04:41:03.380Z,99522.81
2022-12-28T04:43:06.643Z,99520.47
2022-12-28T04:45:10.967Z,99527.81
2022-12-28T04:47:14.576Z,99524.56
2022-12-28T04:49:17.753Z,99522.88
2022-12-28T04:51:23.281Z,99506.28
2022-12-28T04:53:27.875Z,99501.97
2022-12-28T04:55:33.123Z,99492.16
2022-12-28T04:57:36.696Z,99493.84
2022-12-28T04:59:40.872Z,99479.78
2022-12-28T05:01:44.491Z,99467.56
2022-12-28T05:03:54.933Z,99464.84
2022-12-28T05:06:02.521Z,99457.69
2022-12-28T05:08:07.779Z,99456.75
2022-12-28T05:10:12.870Z,99445.28
2022-12-28T05:12:16.535Z,99441.81
2022-12-28T05:14:20.135Z,99431.41
2022-12-28T05:16:26.048Z,99432.47
2022-12-28T05:18:29.944Z,99424.69
2022-12-28T05:20:33.474Z,99416.03
2022-12-28T05:22:40.865Z,99430.13
2022-12-28T05:24:45.151Z,99421.41
2022-12-28T05:26:50.081Z,99399.31
2022-12-28T05:28:53.696Z,99401.75
2022-12-28T05:31:01.943Z,99384.09
2022-12-28T05:33:05.817Z,99375.25
2022-12-28T05:35:10.573Z,99370.00
2022-12-28T05:37:20.134Z,99360.97
2022-12-28T05:39:26.973Z,99352.09
2022-12-28T05:41:31.739Z,99346.84
2022-12-28T05:43:37.205Z,99340.13
2022-12-28T05:45:40.616Z,99330.75
2022-12-28T05:47:44.283Z,99320.69
2022-12-28T05:49:47.836Z,99313.41
2022-12-28T05:51:53.115Z,99301.84
2022-12-28T05:53:57.468Z,99296.19
2022-12-28T05:56:08.223Z,99286.91
2022-12-28T05:58:14.098Z,99279.34
2022-12-28T06:00:19.467Z,99274.44
2022-12-28T06:02:25.795Z,99272.19
2022-12-28T06:04:29.500Z,99258.53
2022-12-28T06:06:34.900Z,99237.09
2022-12-28T06:08:39.814Z,99239.22
2022-12-28T06:10:43.499Z,99232.47
2022-12-28T06:12:47.011Z,99216.09
2022-12-28T06:14:50.455Z,99215.44
2022-12-28T06:16:55.704Z,99208.53
2022-12-28T06:18:59.683Z,99194.53
2022-12-28T06:21:04.692Z,99191.91
2022-12-28T06:23:08.218Z,99179.72
2022-12-28T06:25:12.016Z,99168.28
2022-12-28T06:27:15.572Z,99159.47
2022-12-28T06:29:19.237Z,99156.03
2022-12-28T06:31:24.996Z,99147.19
2022-12-28T06:33:30.211Z,99134.69
2022-12-28T06:35:34.136Z,99116.22
2022-12-28T06:37:37.996Z,99104.75
2022-12-28T06:39:41.535Z,99094.25
2022-12-28T06:41:45.284Z,99081.13
2022-12-28T06:43:49.938Z,99076.59
2022-12-28T06:45:57.686Z,99067.91
2022-12-28T06:48:01.336Z,99059.91
2022-12-28T06:50:06.710Z,99045.84
2022-12-28T06:52:10.428Z,99044.03
2022-12-28T06:54:14.008Z,99023.03
2022-12-28T06:56:19.195Z,99021.28
2022-12-28T06:58:22.800Z,99020.53
2022-12-28T07:00:26.352Z,99009.19
2022-12-28T07:02:30.048Z,98998.69
2022-12-28T07:04:33.727Z,98986.28
2022-12-28T07:06:42.717Z,98975.66
2022-12-28T07:08:46.719Z,98958.13
2022-12-28T07:10:50.324Z,98959.59
2022-12-28T07:12:54.092Z,98949.81
2022-12-28T07:14:57.501Z,98942.44
2022-12-28T07:17:01.331Z,98929.06
2022-12-28T07:19:04.915Z,98923.38
2022-12-28T07:21:10.694Z,98915.16
2022-12-28T07:23:15.670Z,98904.09
2022-12-28T07:25:20.454Z,98891.94
2022-12-28T07:27:24.173Z,98889.47
2022-12-28T07:29:27.647Z,98878.59
2022-12-28T07:31:37.059Z,98872.03
2022-12-28T07:33:46.765Z,98861.66
2022-12-28T07:35:50.331Z,98859.63
2022-12-28T07:37:55.778Z,98842.56
2022-12-28T07:40:00.948Z,98831.56
2022-12-28T07:42:07.050Z,98825.13
2022-12-28T07:44:10.672Z,98827.63
2022-12-28T07:46:16.088Z,98813.50
2022-12-28T07:48:19.730Z,98813.50
2022-12-28T07:50:23.358Z,98810.78
2022-12-28T07:52:26.920Z,98800.84
2022-12-28T07:54:30.454Z,98792.72
2022-12-28T07:58:38.235Z,98773.97
2022-12-28T08:00:41.790Z,98770.13
2022-12-28T08:02:45.514Z,98756.03
2022-12-28T08:04:52.261Z,98749.78
2022-12-28T08:06:55.989Z,98755.91
2022-12-28T08:09:02.114Z,98740.94
2022-12-28T08:11:06.833Z,98732.34
2022-12-28T08:13:11.788Z,98728.75
2022-12-28T08:15:15.357Z,98714.63
2022-12-28T08:17:21.223Z,98705.94
2022-12-28T08:19:24.952Z,98700.66
2022-12-28T08:21:31.191Z,98691.22
2022-12-28T08:23:35.013Z,98684.41
2022-12-28T08:25:38.759Z,98673.91
2022-12-28T08:27:42.401Z,98671.38
2022-12-28T08:29:47.314Z,98658.38
2022-12-28T08:31:51.446Z,98652.03
2022-12-28T08:33:55.838Z,98637.91
2022-12-28T08:35:59.747Z,98631.69
2022-12-28T08:38:03.370Z,98627.97
2022-12-28T08:40:08.317Z,98618.16
2022-12-28T08:42:11.751Z,98609.44
2022-12-28T08:44:15.391Z,98604.16
2022-12-28T08:46:22.366Z,98600.59
2022-12-28T08:48:26.271Z,98595.31
2022-12-28T08:50:31.886Z,98591.75
2022-12-28T08:52:35.937Z,98579.41
2022-12-28T08:54:39.618Z,98570.56
2022-12-28T08:56:45.525Z,98559.09
2022-12-28T08:58:50.179Z,98554.66
2022-12-28T09:00:53.796Z,98548.44
2022-12-28T09:03:00.597Z,98539.69
2022-12-28T09:05:04.301Z,98530.03
2022-12-28T09:07:08.068Z,98522.00
2022-12-28T09:09:14.261Z,98528.06
2022-12-28T09:11:17.973Z,98519.22
2022-12-28T09:13:22.321Z,98518.00
2022-12-28T09:15:25.758Z,98514.28
2022-12-28T09:17:29.367Z,98498.38
2022-12-28T09:19:34.404Z,98500.72
2022-12-28T09:21:39.850Z,98491.59
2022-12-28T09:23:44.809Z,98486.94
2022-12-28T09:25:48.876Z,98478.63
2022-12-28T09:27:58.958Z,98468.69
2022-12-28T09:30:03.597Z,98468.41
2022-12-28T09:32:07.269Z,98465.63
2022-12-28T09:36:40.194Z,98442.25
2022-12-28T09:38:44.407Z,98434.22
2022-12-28T09:40:47.992Z,98433.69
2022-12-28T09:42:52.870Z,98423.59
2022-12-28T09:45:04.338Z,98409.88
2022-12-28T09:47:17.645Z,98406.72
2022-12-28T09:49:22.997Z,98400.91
2022-12-28T09:51:33.186Z,98398.69
2022-12-28T09:53:38.344Z,98393.72
2022-12-28T09:55:46.175Z,98381.78
2022-12-28T09:57:53.369Z,98372.34
2022-12-28T09:59:57.061Z,98370.97
2022-12-28T10:02:04.314Z,98364.44
2022-12-28T10:04:08.487Z,98357.25
2022-12-28T10:06:14.730Z,98346.41
2022-12-28T10:08:22.626Z,98330.44
2022-12-28T10:10:29.136Z,98335.47
2022-12-28T10:12:32.687Z,98313.81
2022-12-28T10:14:37.196Z,98316.84
2022-12-28T10:16:46.953Z,98311.53
2022-12-28T10:18:52.803Z,98315.16
2022-12-28T10:20:57.377Z,98304.94
2022-12-28T10:23:01.378Z,98293.53
2022-12-28T10:25:13.925Z,98287.53
2022-12-28T10:27:23.351Z,98280.84
2022-12-28T10:29:27.797Z,98276.78
2022-12-28T10:31:36.541Z,98270.22
2022-12-28T10:33:41.231Z,98269.66
2022-12-28T10:35:51.647Z,98267.38
2022-12-28T10:38:03.153Z,98249.28
2022-12-28T10:40:18.414Z,98243.94
2022-12-28T10:42:27.873Z,98237.91
2022-12-28T10:44:41.367Z,98228.28
2022-12-28T10:46:54.544Z,98235.31
2022-12-28T10:49:00.302Z,98230.09
2022-12-28T10:51:14.312Z,98224.72
2022-12-28T10:53:19.844Z,98220.84
2022-12-28T10:55:31.746Z,98225.28
2022-12-28T10:57:38.048Z,98217.09
2022-12-28T10:59:41.913Z,98209.22
2022-12-28T11:01:45.803Z,98210.09
2022-12-28T11:04:01.756Z,98199.53
2022-12-28T11:06:14.188Z,98190.66
2022-12-28T11:08:17.772Z,98173.53
2022-12-28T11:10:30.368Z,98180.69
2022-12-28T11:12:37.177Z,98179.59
2022-12-28T11:14:42.584Z,98182.91
2022-12-28T11:16:46.252Z,98186.47
2022-12-28T11:18:50.346Z,98179.16
2022-12-28T11:20:55.477Z,98171.38
2022-12-28T11:22:59.446Z,98167.91
2022-12-28T11:25:04.232Z,98162.44
2022-12-28T11:27:12.048Z,98160.94
2022-12-28T11:29:18.539Z,98159.81
2022-12-28T11:31:29.829Z,98157.16
2022-12-28T11:33:40.345Z,98147.22
2022-12-28T11:35:46.198Z,98136.44
2022-12-28T11:37:54.496Z,98127.34
2022-12-28T11:40:00.475Z,98121.25
2022-12-28T11:42:37.745Z,98113.63
2022-12-28T11:44:54.582Z,98106.34
2022-12-28T11:47:04.041Z,98106.00
2022-12-28T11:49:25.904Z,98103.50
2022-12-28T11:51:30.745Z,98101.03
2022-12-28T11:53:55.784Z,98104.66
2022-12-28T11:56:08.645Z,98106.50
2022-12-28T11:59:01.814Z,98098.56
2022-12-28T12:01:05.941Z,98095.09
2022-12-28T12:03:11.075Z,98100.69
2022-12-28T12:05:53.717Z,98094.75
2022-12-28T12:07:57.374Z,98089.13
2022-12-28T12:10:30.903Z,98097.72
2022-12-28T12:12:50.847Z,98092.72
2022-12-28T12:14:58.977Z,98092.25
2022-12-28T12:17:06.590Z,98084.97
2022-12-28T12:19:23.789Z,98077.88
2022-12-28T12:21:47.106Z,98067.56
2022-12-28T12:23:54.629Z,98060.00
2022-12-28T12:26:22.229Z,98053.72
2022-12-28T12:28:45.519Z,98068.28
2022-12-28T12:30:56.340Z,98075.69
2022-12-28T12:33:06.993Z,98078.16
2022-12-28T12:35:24.581Z,98082.47
2022-12-28T12:37:55.875Z,98075.53
2022-12-28T12:40:32.638Z,98080.97
2022-12-28T12:42:51.913Z,98087.75
2022-12-28T12:45:12.640Z,98086.44
2022-12-28T12:47:40.908Z,98098.69
2022-12-28T12:50:13.720Z,98093.06
2022-12-28T12:52:32.638Z,98085.13
2022-12-28T12:54:55.276Z,98060.63
2022-12-28T12:57:05.641Z,98069.88
2022-12-28T12:59:37.883Z,98062.63
2022-12-28T13:01:53.314Z,98060.44
2022-12-28T13:04:47.982Z,98078.94
2022-12-28T13:07:27.666Z,98074.16
2022-12-28T13:09:52.764Z,98073.50
2022-12-28T13:12:03.217Z,98064.88
2022-12-28T13:14:07.641Z,98068.22
2022-12-28T13:16:13.092Z,98073.50
2022-12-28T13:18:44.719Z,98063.75
2022-12-28T13:20:43.247Z,98058.28
2022-12-28T13:22:48.917Z,98056.97
2022-12-28T13:24:54.540Z,98048.22
2022-12-28T13:26:59.825Z,98053.31
2022-12-28T13:29:09.872Z,98038.44
2022-12-28T13:31:19.598Z,98040.44
2022-12-28T13:33:23.566Z,98042.56
2022-12-28T13:35:28.922Z,98046.38
2022-12-28T13:37:32.263Z,98042.22
2022-12-28T13:39:42.104Z,98036.41
2022-12-28T13:41:50.960Z,98022.03
2022-12-28T13:44:23.315Z,98021.72
2022-12-28T13:46:27.073Z,98017.06
2022-12-28T13:48:32.773Z,98015.88
2022-12-28T13:50:39.222Z,98013.72
2022-12-28T13:52:46.635Z,98008.91
2022-12-28T13:54:54.122Z,98006.78
2022-12-28T13:57:20.610Z,98002.78
2022-12-28T13:59:23.051Z,98006.41
2022-12-28T14:01:30.864Z,98003.09
2022-12-28T14:03:41.382Z,97999.97
2022-12-28T14:05:49.366Z,97979.16
2022-12-28T14:07:55.484Z,97986.41
2022-12-28T14:09:59.246Z,97984.91
2022-12-28T14:12:04.305Z,97992.00
2022-12-28T14:14:08.325Z,97998.28
2022-12-28T14:16:12.037Z,97982.59
2022-12-28T14:18:16.912Z,97973.69
2022-12-28T14:20:20.418Z,97977.94
2022-12-28T14:22:32.307Z,97946.25
2022-12-28T14:24:35.533Z,97957.81
2022-12-28T14:26:41.435Z,97946.56
2022-12-28T14:28:49.464Z,97956.00
2022-12-28T14:30:54.363Z,97948.25
2022-12-28T14:32:59.132Z,97938.47
2022-12-28T14:35:03.510Z,97936.69
2022-12-28T14:37:09.961Z,97939.16
2022-12-28T14:39:27.948Z,97933.72
2022-12-28T14:41:36.104Z,97942.28
2022-12-28T14:43:39.398Z,97943.13
2022-12-28T14:48:25.433Z,97934.72
2022-12-28T14:50:30.594Z,97931.44
2022-12-28T14:52:39.161Z,97927.63
2022-12-28T14:54:45.842Z,97925.81
2022-12-28T14:56:52.956Z,97933.75
2022-12-28T14:58:59.493Z,97931.91
2022-12-28T15:00:25.299Z,97937.84
2022-12-28T15:01:08.773Z,97921.50
2022-12-28T15:03:18.620Z,97922.50
2022-12-28T15:05:40.634Z,97915.56
2022-12-28T15:07:43.942Z,97899.56
2022-12-28T15:09:47.449Z,97903.84
2022-12-28T15:11:50.753Z,97902.03
2022-12-28T15:13:54.519Z,97906.50
2022-12-28T15:15:59.678Z,97893.28
2022-12-28T15:18:05.136Z,97897.91
2022-12-28T15:20:09.790Z,97896.22
2022-12-28T15:22:13.613Z,97912.25
2022-12-28T15:24:19.540Z,97907.13
2022-12-28T15:26:28.009Z,97907.94
2022-12-28T15:28:31.346Z,97886.69
2022-12-28T15:30:34.643Z,97899.03
2022-12-28T15:32:37.985Z,97898.88
2022-12-28T15:34:43.255Z,97892.63
2022-12-28T15:36:46.489Z,97901.53
2022-12-28T15:38:50.518Z,97891.13
2022-12-28T15:40:56.012Z,97880.72
2022-12-28T15:42:59.324Z,97885.31
2022-12-28T15:45:02.626Z,97875.94
2022-12-28T15:47:06.116Z,97872.59
2022-12-28T15:49:11.340Z,97870.13
2022-12-28T15:51:17.165Z,97874.09
2022-12-28T15:53:20.526Z,97873.41
2022-12-28T15:55:23.731Z,97862.19
2022-12-28T15:57:27.689Z,97862.19
2022-12-28T15:59:30.960Z,97858.88
2022-12-28T16:01:35.040Z,97845.84
2022-12-28T16:03:38.392Z,97856.41
2022-12-28T16:05:41.645Z,97846.97
2022-12-28T16:07:46.758Z,97859.53
2022-12-28T16:09:50.286Z,97865.97
2022-12-28T16:11:55.453Z,97868.78
2022-12-28T16:14:01.290Z,97879.34
2022-12-28T16:16:06.567Z,97870.06
2022-12-28T16:18:09.946Z,97865.13
2022-12-28T16:20:13.451Z,97855.88
2022-12-28T16:22:16.660Z,97858.81
2022-12-28T16:24:21.898Z,97863.44
2022-12-28T16:26:25.348Z,97858.47
2022-12-28T16:28:29.501Z,97864.72
2022-12-28T16:30:45.942Z,97858.75
2022-12-28T16:32:49.515Z,97862.41
2022-12-28T16:34:55.344Z,97851.84
2022-12-28T16:36:59.673Z,97853.47
2022-12-28T16:39:04.692Z,97857.78
2022-12-28T16:41:09.408Z,97849.03
2022-12-28T16:43:13.557Z,97852.66
2022-12-28T16:45:16.934Z,97843.91
2022-12-28T16:47:20.304Z,97833.38
2022-12-28T16:49:24.202Z,97829.06
2022-12-28T16:51:27.525Z,97829.41
2022-12-28T16:53:31.846Z,97802.31
2022-12-28T16:55:41.217Z,97816.34
2022-12-28T16:57:45.949Z,97795.22
2022-12-28T16:59:49.131Z,97794.41
2022-12-28T17:01:53.318Z,97814.53
2022-12-28T17:04:03.331Z,97825.09
2022-12-28T17:06:09.079Z,97804.78
2022-12-28T17:08:12.426Z,97808.41
2022-12-28T17:10:16.078Z,97798.88
2022-12-28T17:12:19.313Z,97804.97
2022-12-28T17:14:36.954Z,97802.47
2022-12-28T17:16:41.236Z,97792.91
2022-12-28T17:18:44.585Z,97786.81
2022-12-28T17:20:48.184Z,97797.53
2022-12-28T17:22:51.535Z,97779.06
2022-12-28T17:24:54.778Z,97766.03
2022-12-28T17:27:03.455Z,97792.56
2022-12-28T17:29:08.633Z,97796.19
2022-12-28T17:31:15.552Z,97807.72
2022-12-28T17:33:21.884Z,97786.78
2022-12-28T17:35:25.477Z,97822.88
2022-12-28T17:37:28.695Z,97797.34
2022-12-28T17:39:37.501Z,97779.69
2022-12-28T17:41:43.646Z,97783.97
2022-12-28T17:43:48.212Z,97783.81
2022-12-28T17:45:51.447Z,97765.69
2022-12-28T17:47:56.175Z,97765.69
2022-12-28T17:49:59.365Z,97779.84
2022-12-28T17:52:02.675Z,97768.31
2022-12-28T17:54:05.958Z,97759.56
2022-12-28T17:56:10.904Z,97751.47
2022-12-28T17:58:14.222Z,97749.50
2022-12-28T18:00:19.052Z,97721.97
2022-12-28T18:02:22.442Z,97740.63
2022-12-28T18:04:27.361Z,97733.69
2022-12-28T18:06:30.855Z,97720.47
2022-12-28T18:08:34.471Z,97735.34
2022-12-28T18:10:37.803Z,97700.06
2022-12-28T18:12:41.142Z,97690.47
2022-12-28T18:14:44.387Z,97711.59
2022-12-28T18:16:47.765Z,97703.66
2022-12-28T18:18:51.060Z,97703.66
2022-12-28T18:20:59.746Z,97690.63
2022-12-28T18:23:03.409Z,97692.59
2022-12-28T18:25:07.184Z,97715.53
2022-12-28T18:27:10.426Z,97714.53
2022-12-28T18:29:13.902Z,97692.78
2022-12-28T18:31:17.210Z,97721.47
2022-12-28T18:33:20.542Z,97729.22
2022-12-28T18:35:25.174Z,97726.44
2022-12-28T18:37:30.165Z,97715.88
2022-12-28T18:39:33.605Z,97743.91
2022-12-28T18:41:37.710Z,97731.03
2022-12-28T18:43:41.370Z,97737.47
2022-12-28T18:45:44.653Z,97727.41
2022-12-28T18:47:48.195Z,97732.97
2022-12-28T18:49:51.612Z,97740.25
2022-12-28T18:51:55.301Z,97742.19
2022-12-28T18:54:00.217Z,97746.16
2022-12-28T18:56:06.071Z,97740.38
2022-12-28T18:58:09.759Z,97739.88
2022-12-28T19:00:14.313Z,97764.09
2022-12-28T19:02:19.766Z,97731.13
2022-12-28T19:04:23.347Z,97746.09
2022-12-28T19:06:26.876Z,97759.44
2022-12-28T19:08:30.184Z,97770.16
2022-12-28T19:10:34.781Z,97779.91
2022-12-28T19:12:38.153Z,97788.63
2022-12-28T19:14:41.360Z,97781.69
2022-12-28T19:16:45.290Z,97785.16
2022-12-28T19:18:48.895Z,97786.00
2022-12-28T19:20:57.846Z,97801.97
2022-12-28T19:23:01.153Z,97806.09
2022-12-28T19:25:04.634Z,97811.38
2022-12-28T19:27:09.268Z,97815.00
2022-12-28T19:29:13.590Z,97808.75
2022-12-28T19:31:16.828Z,97816.66
2022-12-28T19:33:20.044Z,97830.00
2022-12-28T19:35:23.382Z,97848.63
2022-12-28T19:37:26.708Z,97860.16
2022-12-28T19:39:29.919Z,97876.97
2022-12-28T19:41:33.123Z,97877.44
2022-12-28T19:43:37.921Z,97893.22
2022-12-28T19:45:41.499Z,97896.06
2022-12-28T19:47:44.849Z,97909.34
2022-12-28T19:49:48.129Z,97919.81
2022-12-28T19:51:51.406Z,97926.00
2022-12-28T19:53:55.182Z,97922.78
2022-12-28T19:55:59.661Z,97936.03
2022-12-28T19:58:03.054Z,97932.16
2022-12-28T20:00:09.327Z,97947.59
2022-12-28T20:02:13.468Z,97957.59
2022-12-28T20:04:16.771Z,97965.94
2022-12-28T20:06:22.418Z,97958.19
2022-12-28T20:08:25.635Z,97970.38
2022-12-28T20:10:30.046Z,97980.50
2022-12-28T20:12:33.237Z,97969.97
2022-12-28T20:14:36.891Z,97980.81
2022-12-28T20:16:41.724Z,97979.28
2022-12-28T20:18:47.093Z,97984.03
2022-12-28T20:21:18.664Z,97991.25
2022-12-28T20:23:13.920Z,97996.50
2022-12-28T20:25:17.253Z,97996.50
2022-12-28T20:27:20.533Z,97995.69
2022-12-28T20:29:23.824Z,97999.16
2022-12-28T20:31:27.953Z,98006.38
2022-12-28T20:33:33.817Z,98004.84
2022-12-28T20:35:37.080Z,98011.25
2022-12-28T20:37:40.431Z,98012.34
2022-12-28T20:39:43.776Z,98015.13
2022-12-28T20:42:04.414Z,98010.16
2022-12-28T20:44:09.490Z,98006.28
2022-12-28T20:46:12.945Z,98014.63
2022-12-28T20:48:16.797Z,98009.66
2022-12-28T20:50:21.469Z,97999.44
2022-12-28T20:52:24.718Z,98014.66
2022-12-28T20:54:28.250Z,98018.56
2022-12-28T20:56:31.542Z,98022.16
2022-12-28T20:58:36.010Z,98023.41
2022-12-28T21:00:40.717Z,98024.38
2022-12-28T21:02:43.978Z,98034.06
2022-12-28T21:04:47.267Z,98028.09
2022-12-28T21:06:51.868Z,98037.00
2022-12-28T21:08:55.165Z,98039.78
2022-12-28T21:10:58.990Z,98036.28
2022-12-28T21:13:02.198Z,98043.50
2022-12-28T21:15:06.113Z,98042.66
2022-12-28T21:17:09.343Z,98045.44
2022-12-28T21:19:12.667Z,98047.25
2022-12-28T21:21:17.315Z,98054.28
2022-12-28T21:23:22.365Z,98059.56
2022-12-28T21:25:25.674Z,98075.34
2022-12-28T21:27:29.992Z,98074.53
2022-12-28T21:29:33.239Z,98080.59
2022-12-28T21:31:36.561Z,98090.00
2022-12-28T21:33:40.253Z,98090.56
2022-12-28T21:35:43.490Z,98088.63
2022-12-28T21:37:46.813Z,98095.28
2022-12-28T21:39:51.404Z,98102.75
2022-12-28T21:41:54.720Z,98108.84
2022-12-28T21:43:57.994Z,98109.81
2022-12-28T21:46:03.147Z,98104.69
2022-12-28T21:48:06.633Z,98107.44
2022-12-28T21:50:11.997Z,98105.81
2022-12-28T21:52:15.343Z,98106.06
2022-12-28T21:54:19.974Z,98102.63
2022-12-28T21:56:25.095Z,98111.47
2022-12-28T21:58:28.291Z,98118.56
2022-12-28T22:00:49.272Z,98122.00
2022-12-28T22:03:09.929Z,98116.88
2022-12-28T22:05:32.186Z,98111.06
2022-12-28T22:07:36.138Z,98111.34
2022-12-28T22:09:57.625Z,98115.09
2022-12-28T22:12:19.657Z,98116.03
2022-12-28T22:14:22.985Z,98118.97
2022-12-28T22:16:25.451Z,98119.91
2022-12-28T22:20:52.086Z,98125.47
2022-12-28T22:22:57.917Z,98115.91
2022-12-28T22:25:01.156Z,98126.44
2022-12-28T22:27:05.888Z,98120.50
2022-12-28T22:29:09.137Z,98122.16
2022-12-28T22:31:12.358Z,98118.97
2022-12-28T22:33:16.412Z,98131.28
2022-12-28T22:35:19.806Z,98134.59
2022-12-28T22:37:23.417Z,98132.94
2022-12-28T22:39:26.685Z,98128.66
2022-12-28T22:41:29.965Z,98133.94
2022-12-28T22:43:34.781Z,98136.56
2022-12-28T22:45:37.992Z,98140.97
2022-12-28T22:47:42.216Z,98133.94
2022-12-28T22:49:45.408Z,98129.63
2022-12-28T22:51:49.020Z,98142.78
2022-12-28T22:53:52.201Z,98148.19
2022-12-28T22:55:58.971Z,98147.28
2022-12-28T22:58:02.201Z,98138.72
2022-12-28T23:00:09.984Z,98147.56
2022-12-28T23:02:13.546Z,98144.13
2022-12-28T23:04:18.103Z,98153.94
2022-12-28T23:06:21.780Z,98149.63
2022-12-28T23:08:25.057Z,98162.94
2022-12-28T23:10:28.383Z,98156.69
2022-12-28T23:12:31.661Z,98174.44
2022-12-28T23:14:52.774Z,98165.56
2022-12-28T23:16:57.772Z,98172.75
2022-12-28T23:19:18.396Z,98167.50
2022-12-28T23:21:41.094Z,98169.16
2022-12-28T23:24:01.831Z,98171.66
2022-12-28T23:26:22.375Z,98177.06
2022-12-28T23:28:26.012Z,98176.91
2022-12-28T23:30:30.123Z,98174.44
2022-12-28T23:32:34.771Z,98170.81
2022-12-28T23:34:38.050Z,98169.84
2022-12-28T23:36:41.234Z,98174.16
2022-12-28T23:38:44.525Z,98180.22
2022-12-28T23:41:07.792Z,98186.34
2022-12-28T23:43:11.143Z,98195.19
2022-12-28T23:45:16.630Z,98195.19
2022-12-28T23:47:21.249Z,98191.84
2022-12-28T23:49:26.045Z,98199.06
2022-12-28T23:51:29.262Z,98194.63
2022-12-28T23:53:32.545Z,98203.75
2022-12-28T23:55:37.062Z,98202.91
2022-12-28T23:57:40.680Z,98210.81
2022-12-28T23:59:44.800Z,98207.31
